Saratoga-Weather Station Historical Data
 
Daily Summary for April 20, 2018 Units:  English    Metric   Both
Daily Weekly Monthly Yearly Custom
  Current: High: Low: Average:
Temperature: 33.9 °F 35.6 °F 33.8 °F 34.5 °F
Dew Point: 25.2 °F 27.2 °F 24.7 °F 25.4 °F
Humidity: 70% 72% 66% 69%
Wind Speed: 0.0mph 5.0mph 0.0mph 1.1mph
Wind Gust: 1.0mph 11.0mph - -
WindCalm - - SE
Pressure: 30.16 in 30.16 in 30.10 in -
Precipitation: 0.00 in      
Historical Graphs
 
 
Tabular Data for April 20, 2018
Time Temperature Dew Point Pressure Wind Wind Speed Wind Gust Humidity Rainfall Rate (Hourly) solar
00:00 35.3 °F 27.2 °F 30.10 in North 1.0 mph 3.0 mph 72% 0.00 in VWS V15.00 W/m2
00:07 35.4 °F 27.0 °F 30.10 in West 5.0 mph 5.0 mph 71% 0.00 in VWS V15.00 W/m2
00:13 35.5 °F 26.4 °F 30.10 in NNE 1.0 mph 7.0 mph 69% 0.00 in VWS V15.00 W/m2
00:19 35.6 °F 26.1 °F 30.11 in Calm   7.0 mph 68% 0.00 in VWS V15.00 W/m2
00:25 35.5 °F 26.0 °F 30.11 in Calm   7.0 mph 68% 0.00 in VWS V15.00 W/m2
00:31 35.4 °F 25.9 °F 30.11 in Calm   4.0 mph 68% 0.00 in VWS V15.00 W/m2
00:37 35.3 °F 25.5 °F 30.11 in Calm   11.0 mph 67% 0.00 in VWS V15.00 W/m2
00:43 35.2 °F 25.0 °F 30.11 in NNE 2.0 mph 11.0 mph 66% 0.00 in VWS V15.00 W/m2
00:49 35.2 °F 25.0 °F 30.11 in Calm   11.0 mph 66% 0.00 in VWS V15.00 W/m2
00:55 35.2 °F 25.4 °F 30.11 in Calm   11.0 mph 67% 0.00 in VWS V15.00 W/m2
01:01 35.0 °F 25.5 °F 30.11 in ENE 1.0 mph 1.0 mph 68% 0.00 in VWS V15.00 W/m2
01:07 34.7 °F 24.9 °F 30.11 in Calm   5.0 mph 67% 0.00 in VWS V15.00 W/m2
01:13 34.7 °F 24.9 °F 30.11 in Calm   5.0 mph 67% 0.00 in VWS V15.00 W/m2
01:19 34.7 °F 24.9 °F 30.11 in ENE 3.0 mph 5.0 mph 67% 0.00 in VWS V15.00 W/m2
01:25 34.7 °F 25.2 °F 30.11 in Calm   5.0 mph 68% 0.00 in VWS V15.00 W/m2
01:31 34.6 °F 25.1 °F 30.11 in Calm     68% 0.00 in VWS V15.00 W/m2
01:37 34.4 °F 25.3 °F 30.11 in Calm   1.0 mph 69% 0.00 in VWS V15.00 W/m2
01:43 34.4 °F 25.3 °F 30.11 in West 3.0 mph 3.0 mph 69% 0.00 in VWS V15.00 W/m2
01:49 34.4 °F 25.3 °F 30.11 in Calm   3.0 mph 69% 0.00 in VWS V15.00 W/m2
01:56 34.4 °F 25.3 °F 30.11 in West 2.0 mph 5.0 mph 69% 0.00 in VWS V15.00 W/m2
02:02 34.4 °F 25.3 °F 30.12 in Calm   4.0 mph 69% 0.00 in VWS V15.00 W/m2
02:08 34.4 °F 25.3 °F 30.11 in Calm   4.0 mph 69% 0.00 in VWS V15.00 W/m2
02:14 34.3 °F 24.9 °F 30.12 in SW 2.0 mph 4.0 mph 68% 0.00 in VWS V15.00 W/m2
02:20 34.3 °F 24.9 °F 30.12 in Calm   5.0 mph 68% 0.00 in VWS V15.00 W/m2
02:26 34.3 °F 25.2 °F 30.12 in Calm   5.0 mph 69% 0.00 in VWS V15.00 W/m2
02:32 34.2 °F 25.1 °F 30.12 in Calm   1.0 mph 69% 0.00 in VWS V15.00 W/m2
02:38 34.2 °F 25.1 °F 30.12 in Calm   3.0 mph 69% 0.00 in VWS V15.00 W/m2
02:44 34.3 °F 25.2 °F 30.13 in North 1.0 mph 6.0 mph 69% 0.00 in VWS V15.00 W/m2
02:50 34.3 °F 25.5 °F 30.13 in North 2.0 mph 8.0 mph 70% 0.00 in VWS V15.00 W/m2
02:56 34.3 °F 25.5 °F 30.13 in NNE 3.0 mph 8.0 mph 70% 0.00 in VWS V15.00 W/m2
03:02 34.3 °F 25.5 °F 30.14 in NE 3.0 mph 5.0 mph 70% 0.00 in VWS V15.00 W/m2
03:08 34.2 °F 25.5 °F 30.14 in NW 2.0 mph 6.0 mph 70% 0.00 in VWS V15.00 W/m2
03:14 34.2 °F 25.8 °F 30.14 in NNE 4.0 mph 7.0 mph 71% 0.00 in VWS V15.00 W/m2
03:20 34.2 °F 25.8 °F 30.14 in Calm   7.0 mph 71% 0.00 in VWS V15.00 W/m2
03:26 34.2 °F 25.8 °F 30.14 in NNE 2.0 mph 7.0 mph 71% 0.00 in VWS V15.00 W/m2
03:32 34.2 °F 25.8 °F 30.14 in Calm   2.0 mph 71% 0.00 in VWS V15.00 W/m2
03:38 34.2 °F 25.5 °F 30.14 in NNW 1.0 mph 4.0 mph 70% 0.00 in VWS V15.00 W/m2
03:44 34.2 °F 25.8 °F 30.15 in West 1.0 mph 4.0 mph 71% 0.00 in VWS V15.00 W/m2
03:50 34.2 °F 25.8 °F 30.15 in NNE 1.0 mph 5.0 mph 71% 0.00 in VWS V15.00 W/m2
03:56 34.1 °F 25.4 °F 30.15 in Calm   5.0 mph 70% 0.00 in VWS V15.00 W/m2
04:02 33.9 °F 25.2 °F 30.15 in East 1.0 mph 2.0 mph 70% 0.00 in VWS V15.00 W/m2
04:08 33.8 °F 25.1 °F 30.16 in NNE 5.0 mph 9.0 mph 70% 0.00 in VWS V15.00 W/m2
04:14 33.8 °F 24.7 °F 30.16 in NNW 3.0 mph 9.0 mph 69% 0.00 in VWS V15.00 W/m2
04:20 33.8 °F 24.7 °F 30.16 in North 1.0 mph 9.0 mph 69% 0.00 in VWS V15.00 W/m2
04:26 33.9 °F 24.8 °F 30.16 in NNE 2.0 mph 9.0 mph 69% 0.00 in VWS V15.00 W/m2
04:32 33.9 °F 25.2 °F 30.16 in Calm   1.0 mph 70% 0.00 in VWS V15.00 W/m2
Liberty Hills, Hanover Township, Pennsylvania, USA
Compliments of Weather Underground - 4 mb